Terminal Aerodrome Forecast
Issued by NWS Billings, MT

Home | Current Version | Previous Version | Text Only | Print | Product List | Glossary On
Versions: 1 2 3 4 5 6 7 8 9 10 11 12 13 14 15 16 17 18 19 20 21 22 23 24 25
000
FTUS45 KBYZ 030520
TAFSHR
TAF
KSHR 030520Z 0306/0406 35012KT 3/4SM -SN BR BKN006 OVC010
      TEMPO 0306/0309 2SM -SN BR SCT020 BKN035
     FM030900 31020G30KT 1SM -SN BLSN BKN006 OVC010
     FM031500 32015KT 6SM -SN BR BKN010 OVC020
     FM031900 33015KT P6SM SCT020 SCT100=

USA.gov is the U.S. government's official web portal to all federal, state and local government web resources and services.